Weather reports worldwide

Advertisment
Kahler Asten, Germany (10427): temperature & dewpoint: 19.09.2018 12:00:00 - 25.09.2018 12:00:00 (CEST)Kahler Asten, Germany (10427): temperature 5cm & temperature -5cm: 19.09.2018 12:00:00 - 25.09.2018 12:00:00 (CEST)Kahler Asten, Germany (10427): temperature -20cm & temperature -100cm: 19.09.2018 12:00:00 - 25.09.2018 12:00:00 (CEST)Kahler Asten, Germany (10427): wind speed & gusts: 19.09.2018 12:00:00 - 25.09.2018 12:00:00 (CEST)Kahler Asten, Germany (10427): wind direction: 19.09.2018 12:00:00 - 25.09.2018 12:00:00 (CEST)Kahler Asten, Germany (10427): visibility: 19.09.2018 12:00:00 - 25.09.2018 12:00:00 (CEST)Kahler Asten, Germany (10427): sunshine duration: 19.09.2018 12:00:00 - 25.09.2018 12:00:00 (CEST)Kahler Asten, Germany (10427): precipitation: 19.09.2018 12:00:00 - 25.09.2018 12:00:00 (CEST)
Date & Time tt [°C] td [°C] tt 5cm [°C] tt -5cm [°C] tt -20cm [°C] tt -100cm [°C] ff [km/h] ff [kn] fx [km/h] fx [kn] dd vv [km] sd [min] rr [mm]
25.09.2018 12:00:00 - - - - - - - - - - - - - -
25.09.2018 11:00:00 6,0 2,8 10,4 10,7 7,7 13,0 12 7 20 11 N 39 60 0,0
25.09.2018 10:00:00 5,1 3,4 8,3 8,1 7,5 13,0 10 6 17 9 N 37 60 0,0
25.09.2018 09:00:00 3,6 2,7 5,4 5,3 7,6 13,0 10 5 21 11 NW 30 50 0,0
25.09.2018 08:00:00 2,2 1,9 1,5 3,8 7,8 13,0 17 9 25 14 NNW 0,3 0 0,0
25.09.2018 07:00:00 2,2 1,8 0,8 4,3 7,9 13,0 17 9 22 12 NW 9 0 0,0
25.09.2018 06:00:00 2,4 2,1 2,2 4,7 8,1 13,1 16 8 21 11 WNW 0,1 0 0,0
25.09.2018 05:00:00 2,4 2,0 1,7 5,0 8,2 13,1 16 9 21 12 NW 0,7 0 0,0
25.09.2018 04:00:00 3,0 2,5 2,7 5,4 8,3 13,1 15 8 20 11 NNW 3,0 0 0,0
25.09.2018 03:00:00 3,1 2,6 3,2 5,6 8,4 13,1 12 7 23 13 WNW 8 0 0,0
25.09.2018 02:00:00 3,2 2,8 3,3 5,6 8,5 13,1 14 8 24 13 NW 0,3 0 0,0
25.09.2018 01:00:00 3,3 2,9 3,4 5,5 8,6 13,1 15 8 31 17 NNW 1,8 0 0,0
25.09.2018 00:00:00 3,1 2,5 2,5 5,4 8,8 13,2 19 10 31 17 NW 20 0 0,0
24.09.2018 23:00:00 3,4 2,8 3,2 5,6 9,0 13,2 20 11 34 19 NW 21 0 0,0
24.09.2018 22:00:00 3,0 2,1 1,9 6,0 9,2 13,2 23 13 44 24 NW 48 0 0,7
24.09.2018 21:00:00 4,3 2,9 4,0 6,6 9,4 13,2 22 12 50 27 NW 59 0 0,0
24.09.2018 20:00:00 4,3 3,1 3,4 7,1 9,5 13,2 25 13 50 27 NW 48 0 0,0
24.09.2018 19:00:00 4,7 3,3 4,3 7,9 9,6 13,2 28 15 54 29 NNW 50 41 0,2
24.09.2018 18:00:00 6,4 2,6 7,0 8,8 9,5 13,3 30 16 61 33 WNW 30 47 0,0
24.09.2018 17:00:00 6,6 2,9 9,1 9,0 9,4 13,3 27 15 46 25 WNW 24 31 0,0
24.09.2018 16:00:00 5,3 2,7 5,3 9,8 9,2 13,3 38 20 63 34 NW 62 20 0,0
24.09.2018 15:00:00 7,2 2,5 9,7 10,1 9,0 13,3 34 19 53 28 WNW 36 24 0,0
24.09.2018 14:00:00 6,9 2,7 8,6 9,4 8,8 13,3 29 16 48 26 WNW 44 13 0,0
24.09.2018 13:00:00 5,7 2,7 6,0 8,7 8,5 13,3 25 14 45 24 WNW 60 10 0,0
24.09.2018 12:00:00 5,9 3,1 9,1 7,9 8,3 13,4 28 15 48 26 WNW 44 12 0,0
24.09.2018 11:00:00 5,0 2,6 6,3 7,3 8,2 13,4 30 16 50 27 NW 28 14 0,0
24.09.2018 10:00:00 3,9 3,0 4,8 6,0 8,3 13,4 27 15 45 25 WNW 20 1 0,0
24.09.2018 09:00:00 3,2 2,7 3,6 5,4 8,4 13,4 28 15 57 31 WNW 6 0 0,0
24.09.2018 08:00:00 3,1 2,5 3,0 5,2 8,5 13,4 35 19 56 31 NW 15 0 0,0
24.09.2018 07:00:00 3,1 2,5 3,0 5,4 8,6 13,4 35 19 53 29 NW 12 0 0,0
24.09.2018 06:00:00 3,2 2,6 3,1 5,5 8,8 13,4 37 20 54 29 NW 10 0 0,0
24.09.2018 05:00:00 3,2 2,8 3,2 5,7 8,9 13,5 35 19 63 34 NW 6 0 0,0
24.09.2018 04:00:00 3,5 3,0 3,4 5,9 9,0 13,5 34 18 60 32 NW 10 0 0,0
24.09.2018 03:00:00 3,6 3,1 3,6 6,1 9,2 13,5 32 17 57 31 NW 3,3 0 0,0
24.09.2018 02:00:00 3,7 3,2 3,6 6,2 9,3 13,5 38 20 56 30 NW 11 0 0,0
24.09.2018 01:00:00 3,8 3,4 3,8 6,4 9,5 13,5 40 22 61 33 NW 5 0 0,1
24.09.2018 00:00:00 4,0 3,7 4,1 6,5 9,7 13,5 37 20 56 31 NW 0,6 0 0,1
23.09.2018 23:00:00 3,9 3,6 4,0 6,6 9,9 13,5 33 18 52 28 NNW 0,9 0 1,4
23.09.2018 22:00:00 3,5 3,2 3,5 6,7 10,2 13,6 33 18 58 31 NNW 3,9 0 1,1
23.09.2018 21:00:00 3,1 2,8 3,2 7,1 10,5 13,6 35 19 55 30 NNW 0,3 0 1,0
23.09.2018 20:00:00 3,4 3,2 3,6 7,8 10,7 13,6 27 15 55 30 N 0,2 0 0,6
23.09.2018 19:00:00 4,3 4,1 4,5 8,5 10,9 13,6 32 18 54 29 N 0,2 0 1,2
23.09.2018 18:00:00 5,4 5,2 5,6 9,2 11,0 13,6 35 19 61 33 N 0,1 0 0,7
23.09.2018 17:00:00 6,8 6,6 7,2 9,7 11,1 13,6 35 19 57 31 N 0,1 0 2,0
23.09.2018 16:00:00 7,4 7,1 7,6 10,2 11,1 13,6 35 19 49 27 N 0,2 0 7,1
23.09.2018 15:00:00 8,2 7,9 8,4 10,8 11,0 13,6 16 9 23 13 NNE 0,7 0 2,9
23.09.2018 14:00:00 8,4 8,0 8,9 11,3 10,8 13,7 7 4 23 12 NE 0,4 0 1,2
23.09.2018 13:00:00 8,2 8,0 9,0 11,0 10,6 13,7 14 8 21 11 SE 0,2 0 0,2
23.09.2018 12:00:00 7,9 7,7 8,7 10,4 10,5 13,7 14 8 18 10 SE 0,3 0 0,5
23.09.2018 11:00:00 7,3 7,1 8,3 9,5 10,4 13,7 12 6 16 9 ESE 0,3 0 0,4
23.09.2018 10:00:00 6,9 6,7 7,6 8,8 10,4 13,7 14 8 21 12 ESE 0,3 0 0,4
23.09.2018 09:00:00 6,5 6,3 6,8 8,5 10,5 13,7 16 9 22 12 SE 0,3 0 0,7
23.09.2018 08:00:00 6,3 6,0 6,4 8,4 10,6 13,7 16 9 22 12 SE 0,2 0 0,6
23.09.2018 07:00:00 6,3 6,0 6,4 8,5 10,6 13,7 16 9 23 13 SSE 0,2 0 0,7
23.09.2018 06:00:00 6,2 6,0 6,3 8,6 10,7 13,8 13 7 21 12 S 0,2 0 0,8
23.09.2018 05:00:00 6,1 5,9 6,2 8,6 10,8 13,8 14 8 24 13 S 0,1 0 0,0
23.09.2018 04:00:00 6,1 5,8 6,1 8,6 10,8 13,8 17 9 28 15 S 0,1 0 0,0
23.09.2018 03:00:00 5,7 5,4 5,8 8,6 11,0 13,8 18 10 24 13 S 0,1 0 0,2
23.09.2018 02:00:00 5,6 5,3 5,7 8,7 11,1 13,8 12 6 19 11 SW 0,2 0 0,0
23.09.2018 01:00:00 5,7 5,5 5,9 8,7 11,2 13,8 15 8 26 14 WSW 0,1 0 0,1
23.09.2018 00:00:00 5,6 5,3 5,7 8,8 11,4 13,8 17 9 31 17 W 0,2 0 0,2
22.09.2018 23:00:00 5,7 5,5 5,8 9,0 11,5 13,8 24 13 35 19 W 0,2 0 0,7
22.09.2018 22:00:00 5,6 5,3 5,7 9,2 11,7 13,8 22 12 42 23 W 0,4 0 0,5
22.09.2018 21:00:00 5,6 5,2 5,7 9,5 11,9 13,8 28 15 42 23 W 2,6 0 0,1
22.09.2018 20:00:00 5,7 5,2 5,6 10,0 12,0 13,8 25 13 41 22 W 8 0 0,3
22.09.2018 19:00:00 6,2 5,7 6,3 10,6 12,1 13,9 26 14 43 23 W 4,6 0 0,5
22.09.2018 18:00:00 7,6 5,1 7,1 11,4 12,1 13,9 32 17 47 25 W 24 0 0,0
22.09.2018 17:00:00 8,1 5,1 8,4 11,8 12,0 13,9 23 12 35 19 SW 70 0 0,0
22.09.2018 16:00:00 8,4 4,7 9,2 12,0 11,9 13,9 21 11 40 22 WSW 70 0 0,0
22.09.2018 15:00:00 10,1 2,9 10,8 12,5 11,7 13,9 25 14 40 22 WSW 64 0 0,0
22.09.2018 14:00:00 9,7 3,1 10,9 12,0 11,4 13,9 24 13 40 21 WSW 54 10 0,0
22.09.2018 13:00:00 9,7 4,5 11,5 11,6 11,2 13,9 24 13 39 21 WSW 37 22 0,0
22.09.2018 12:00:00 9,3 5,0 11,3 10,9 11,0 13,9 26 14 44 24 WSW 27 33 0,0
22.09.2018 11:00:00 7,4 5,7 8,5 9,6 11,0 13,9 22 12 36 19 WSW 25 4 0,0
22.09.2018 10:00:00 6,4 5,9 7,6 8,8 11,0 13,9 21 11 40 21 WSW 8 0 0,0
22.09.2018 09:00:00 5,7 5,4 6,1 8,5 11,1 13,9 26 14 45 25 W 3,4 0 0,0
22.09.2018 08:00:00 5,6 5,2 5,7 8,4 11,2 13,9 29 16 50 27 W 1,5 0 0,0
22.09.2018 07:00:00 5,7 5,2 5,6 8,5 11,3 13,9 35 19 50 27 W 8 0 0,0
22.09.2018 06:00:00 5,8 5,4 5,8 8,6 11,5 13,9 32 18 55 30 W 7 0 0,5
22.09.2018 05:00:00 5,9 5,4 5,8 8,6 11,6 13,9 29 16 59 32 W 2,8 0 0,1
22.09.2018 04:00:00 6,2 4,8 6,1 8,6 11,8 13,9 37 20 62 34 W 31 0 0,0
22.09.2018 03:00:00 6,8 4,2 6,5 8,6 12,0 13,9 43 23 71 39 W 43 0 0,0
22.09.2018 02:00:00 6,7 3,7 5,9 8,6 12,2 13,9 46 25 72 39 W 48 0 0,0
22.09.2018 01:00:00 7,0 3,2 6,4 8,7 12,5 13,9 43 23 69 38 W 61 0 0,0
22.09.2018 00:00:00 6,9 2,8 6,0 8,8 12,9 13,9 41 22 65 35 W 70 0 0,0
21.09.2018 23:00:00 6,7 2,8 5,5 9,1 13,2 13,9 39 21 57 31 WSW 70 0 0,0
21.09.2018 22:00:00 6,9 2,6 5,8 9,6 13,6 13,9 37 20 59 32 WSW 70 0 0,0
21.09.2018 21:00:00 6,6 3,1 5,3 10,3 14,0 13,9 32 18 54 29 WSW 70 0 0,0
21.09.2018 20:00:00 7,3 3,0 5,9 11,2 14,3 13,9 36 19 59 32 W 70 2 0,0
21.09.2018 19:00:00 8,4 4,3 7,7 12,3 14,5 13,9 35 19 53 29 W 64 14 0,0
21.09.2018 18:00:00 8,1 6,4 8,0 12,7 14,8 13,9 29 16 63 34 W 31 0 0,0
21.09.2018 17:00:00 8,5 7,5 8,6 13,1 15,0 13,9 33 18 63 34 W 13 0 0,0
21.09.2018 16:00:00 8,7 8,4 9,0 13,6 15,2 13,8 36 20 55 30 W 9 0 0,1
21.09.2018 15:00:00 8,3 8,0 8,8 14,2 15,4 13,8 35 19 60 33 W 1,4 0 0,4
21.09.2018 14:00:00 8,1 7,6 8,4 15,1 15,4 13,8 36 19 65 35 W 4,1 0 3,3
21.09.2018 13:00:00 15,1 10,3 15,0 16,3 15,3 13,8 42 23 78 42 SW 60 0 0,0
21.09.2018 12:00:00 17,0 9,4 17,5 16,3 15,2 13,8 41 22 74 40 SW 56 15 0,0
21.09.2018 11:00:00 16,8 9,3 17,0 15,6 15,2 13,8 48 26 80 43 SW 42 2 0,0
21.09.2018 10:00:00 16,4 11,3 16,4 15,1 15,2 13,8 42 23 66 35 SW 34 2 0,0
21.09.2018 09:00:00 15,6 10,7 15,2 14,8 15,3 13,8 32 17 53 29 SSW 42 17 0,0
21.09.2018 08:00:00 15,9 10,2 15,5 14,4 15,4 13,8 39 21 56 30 S 50 0 0,0
21.09.2018 07:00:00 15,6 10,2 14,4 14,5 15,6 13,8 36 19 51 28 SSW 48 0 0,0
21.09.2018 06:00:00 15,6 10,6 14,4 14,7 15,7 13,8 37 20 50 27 SSW 45 0 0,0
21.09.2018 05:00:00 15,4 11,3 14,0 15,0 15,9 13,8 36 19 51 28 SSW 41 0 0,0
21.09.2018 04:00:00 16,5 11,5 15,4 15,2 16,0 13,8 42 23 55 30 SSW 43 0 0,0
21.09.2018 03:00:00 16,5 11,2 15,5 15,3 16,2 13,8 39 21 56 30 SSW 44 0 0,0
21.09.2018 02:00:00 16,5 10,6 15,5 15,4 16,4 13,8 40 21 55 30 SSW 50 0 0,0
21.09.2018 01:00:00 16,4 10,0 15,2 15,6 16,6 13,8 35 19 50 27 SSW 53 0 0,0
21.09.2018 00:00:00 16,3 8,6 15,1 15,8 16,9 13,8 34 18 44 24 SSW 66 0 0,0
20.09.2018 23:00:00 16,1 7,9 14,2 16,2 17,1 13,8 30 16 39 21 SSW 68 0 0,0
20.09.2018 22:00:00 16,7 6,6 15,2 16,9 17,4 13,8 30 16 38 21 SSW 70 0 0,0
20.09.2018 21:00:00 17,1 6,6 15,6 17,6 17,6 13,8 26 14 35 19 SSW 70 0 0,0
20.09.2018 20:00:00 17,6 7,6 15,9 18,7 17,7 13,8 23 12 32 17 SSW 70 0 0,0
20.09.2018 19:00:00 19,0 8,6 17,7 19,9 17,6 13,7 21 11 37 20 SSW 62 52 0,0
20.09.2018 18:00:00 20,3 9,2 20,9 20,7 17,3 13,7 24 13 41 22 SW 27 60 0,0
20.09.2018 17:00:00 20,7 10,0 21,8 21,0 17,0 13,7 22 12 41 22 SSW 47 60 0,0
20.09.2018 16:00:00 20,7 9,8 23,2 21,5 16,5 13,7 29 16 44 24 SW 20 54 0,0
20.09.2018 15:00:00 20,6 10,4 23,6 21,4 16,0 13,7 24 13 44 24 SW 29 60 0,0
20.09.2018 14:00:00 19,8 10,6 23,8 20,7 15,5 13,7 20 11 42 23 SW 22 60 0,0
20.09.2018 13:00:00 18,3 10,4 20,8 19,2 15,1 13,7 27 14 47 25 SW 18 60 0,0
20.09.2018 12:00:00 17,5 11,0 20,6 18,0 14,8 13,7 32 18 49 26 SW 15 60 0,0
20.09.2018 11:00:00 16,7 11,4 19,4 17,5 14,5 13,7 29 16 45 24 SW 22 60 0,0
20.09.2018 10:00:00 15,4 11,1 17,0 17,2 14,4 13,7 26 14 36 20 SW 23 60 0,0
20.09.2018 09:00:00 14,4 10,8 15,2 14,3 14,4 13,7 19 11 27 15 SSW 27 54 0,0
20.09.2018 08:00:00 12,8 10,0 11,4 11,4 14,6 13,7 19 11 26 14 SW 31 0 0,0
20.09.2018 07:00:00 12,9 9,8 11,0 11,3 14,9 13,7 18 10 26 14 SW 35 0 0,0
20.09.2018 06:00:00 12,8 9,9 10,4 11,4 15,2 13,7 15 8 20 11 SW 36 0 0,0
20.09.2018 05:00:00 13,0 9,8 10,7 11,7 15,5 13,7 13 7 16 9 SW 36 0 0,0
20.09.2018 04:00:00 13,3 10,2 8,6 12,2 15,8 13,7 9 5 19 10 SW 34 0 0,0
20.09.2018 03:00:00 13,8 10,1 11,6 12,9 16,1 13,6 14 8 21 11 W 36 0 0,0
20.09.2018 02:00:00 14,4 10,3 12,3 13,6 16,4 13,6 17 9 26 14 WNW 39 0 0,0
20.09.2018 01:00:00 15,1 11,0 13,2 14,1 16,8 13,6 17 9 24 13 WNW 42 0 0,0
20.09.2018 00:00:00 16,3 11,5 14,2 14,8 17,1 13,6 18 10 25 14 W 51 0 0,0
19.09.2018 23:00:00 16,7 11,7 14,2 15,5 17,4 13,6 16 9 33 18 W 48 0 0,0
19.09.2018 22:00:00 18,2 12,1 16,4 16,5 17,7 13,6 22 12 35 19 WSW 55 0 0,0
19.09.2018 21:00:00 18,4 12,0 16,8 17,0 18,0 13,6 24 13 34 18 SW 57 0 0,0
19.09.2018 20:00:00 19,1 11,9 17,3 18,1 18,2 13,6 23 13 39 21 SW 57 5 0,0
19.09.2018 19:00:00 20,6 12,1 19,4 20,0 18,2 13,6 26 14 45 24 SW 58 49 0,0
19.09.2018 18:00:00 21,2 12,0 21,4 21,5 18,1 13,6 34 19 50 27 SW 41 47 0,0
19.09.2018 17:00:00 21,1 12,4 21,2 23,2 17,8 13,6 31 17 53 29 SW 52 42 0,0
19.09.2018 16:00:00 21,7 12,2 24,2 24,3 17,4 13,6 28 15 49 26 SW 41 47 0,0
19.09.2018 15:00:00 22,1 12,8 25,7 27,1 16,7 13,6 29 16 48 26 SW 15 53 0,0
19.09.2018 14:00:00 21,1 12,0 24,2 27,4 16,1 13,6 31 17 46 25 SW 20 54 0,0
19.09.2018 13:00:00 19,4 12,6 20,8 24,0 15,5 13,6 27 15 44 24 SW 38 52 0,0
19.09.2018 12:00:00 19,4 12,7 22,3 23,5 14,9 13,6 22 12 34 18 SW 26 60 0,0

tt = temperature
td = dewpoint
tt 5cm = temperature 5cm
tt -5cm = temperature -5cm
tt -20cm = temperature -20cm
tt -100cm = temperature -100cm
ff = wind speed
fx = gusts
dd = wind direction
vv = visibility
sd = sunshine duration
rr = precipitation

Next stations